createdAt,value
2019-01-10T04:58:40.691Z,62.42
2019-01-10T05:03:47.465Z,62.32
2019-01-10T05:08:53.376Z,62.20
2019-01-10T05:13:59.339Z,63.27
2019-01-10T05:19:04.913Z,62.70
2019-01-10T05:24:10.834Z,62.42
2019-01-10T05:29:16.448Z,60.83
2019-01-10T05:34:23.011Z,62.34
2019-01-10T05:39:29.360Z,62.22
2019-01-10T05:44:35.313Z,60.79
2019-01-10T05:49:41.704Z,61.08
2019-01-10T05:54:47.928Z,62.11
2019-01-10T05:59:53.983Z,60.99
2019-01-10T06:05:00.174Z,59.67
2019-01-10T06:10:08.896Z,59.46
2019-01-10T06:15:15.932Z,60.15
2019-01-10T06:20:24.009Z,60.38
2019-01-10T06:25:30.394Z,61.22
2019-01-10T06:30:36.224Z,59.02
2019-01-10T06:35:41.923Z,59.96
2019-01-10T06:40:49.574Z,59.64
2019-01-10T06:45:55.651Z,58.91
2019-01-10T06:51:02.268Z,59.81
2019-01-10T06:56:09.184Z,59.22
2019-01-10T07:01:15.211Z,59.39
2019-01-10T07:06:22.314Z,57.73
2019-01-10T07:11:28.051Z,57.62
2019-01-10T07:16:33.880Z,57.72
2019-01-10T07:21:41.926Z,58.21
2019-01-10T07:26:50.113Z,57.65
2019-01-10T07:31:59.339Z,58.03
2019-01-10T07:37:12.735Z,58.36
2019-01-10T07:42:13.075Z,58.19
2019-01-10T07:47:19.517Z,57.84
2019-01-10T07:52:25.640Z,58.50
2019-01-10T07:57:31.702Z,57.75
2019-01-10T08:02:37.327Z,58.57
2019-01-10T08:07:43.193Z,57.36
2019-01-10T08:12:49.548Z,57.03
2019-01-10T08:17:55.528Z,58.03
2019-01-10T08:23:01.270Z,56.99
2019-01-10T08:28:06.940Z,56.99
2019-01-10T08:33:13.567Z,58.52
2019-01-10T08:38:20.808Z,57.93
2019-01-10T08:43:26.388Z,57.61
2019-01-10T08:48:32.332Z,56.62
2019-01-10T08:53:39.919Z,56.71
2019-01-10T08:58:45.970Z,56.61
2019-01-10T09:03:51.681Z,55.48
2019-01-10T09:08:57.555Z,57.36
2019-01-10T09:14:04.860Z,57.03
2019-01-10T09:19:11.836Z,56.71
2019-01-10T09:24:18.828Z,55.27
2019-01-10T09:29:26.960Z,56.45
2019-01-10T09:34:33.055Z,55.80
2019-01-10T09:39:39.105Z,55.86
2019-01-10T09:44:45.525Z,58.03
2019-01-10T09:49:51.997Z,56.13
2019-01-10T09:54:57.591Z,56.40
2019-01-10T10:00:07.671Z,56.67
2019-01-10T10:05:14.571Z,57.29
2019-01-10T10:10:21.408Z,55.57
2019-01-10T10:15:28.550Z,55.11
2019-01-10T10:20:34.721Z,54.02
2019-01-10T10:25:41.365Z,53.80
2019-01-10T10:30:47.701Z,53.87
2019-01-10T10:35:53.806Z,52.51
2019-01-10T10:41:01.065Z,53.32
2019-01-10T10:46:06.809Z,51.84
2019-01-10T10:51:13.422Z,51.01
2019-01-10T10:56:20.293Z,52.42
2019-01-10T11:01:26.775Z,52.24
2019-01-10T11:06:33.256Z,53.13
2019-01-10T11:11:40.324Z,51.29
2019-01-10T11:16:47.113Z,52.57
2019-01-10T11:21:54.663Z,53.59
2019-01-10T11:27:03.218Z,51.56
2019-01-10T11:32:13.271Z,50.73
2019-01-10T11:37:19.746Z,52.12
2019-01-10T11:42:26.291Z,49.62
2019-01-10T11:47:33.776Z,51.24
2019-01-10T11:52:40.033Z,50.62
2019-01-10T11:57:48.419Z,48.88
2019-01-10T12:02:54.914Z,48.82
2019-01-10T12:08:01.020Z,48.32
2019-01-10T12:13:07.086Z,48.74
2019-01-10T12:18:14.757Z,48.84
2019-01-10T12:23:22.754Z,49.32
2019-01-10T12:28:28.706Z,46.91
2019-01-10T12:39:29.838Z,45.28
2019-01-10T12:44:36.816Z,47.02
2019-01-10T12:49:44.943Z,48.42
2019-01-10T12:54:53.011Z,47.99
2019-01-10T13:00:00.099Z,46.67
2019-01-10T13:05:11.407Z,48.82
2019-01-10T13:10:20.011Z,48.94
2019-01-10T13:15:30.170Z,48.71
2019-01-10T13:20:38.455Z,48.04
2019-01-10T13:25:47.530Z,48.74
2019-01-10T13:30:55.594Z,49.21
2019-01-10T13:36:02.792Z,49.72
2019-01-10T13:41:11.104Z,49.95
2019-01-10T13:46:19.736Z,49.55
2019-01-10T13:51:26.972Z,48.01
2019-01-10T13:56:34.022Z,48.49
2019-01-10T14:01:41.468Z,50.01
2019-01-10T14:06:49.198Z,49.54
2019-01-10T14:11:56.807Z,50.93
2019-01-10T14:17:04.221Z,50.40
2019-01-10T14:22:12.697Z,50.70
2019-01-10T14:27:20.185Z,49.51
2019-01-10T14:32:27.648Z,49.88
2019-01-10T14:37:34.679Z,48.88
2019-01-10T14:42:42.577Z,49.34
2019-01-10T14:47:50.217Z,50.06
2019-01-10T14:52:58.378Z,48.65
2019-01-10T14:58:07.065Z,48.01
2019-01-10T15:03:12.949Z,48.56
2019-01-10T15:08:20.781Z,47.93
2019-01-10T15:13:27.100Z,48.21
2019-01-10T15:18:33.967Z,49.58
2019-01-10T15:23:40.368Z,50.51
2019-01-10T15:28:46.695Z,51.15
2019-01-10T15:33:53.393Z,50.66
2019-01-10T15:39:00.449Z,49.99
2019-01-10T15:44:07.039Z,48.78
2019-01-10T15:49:13.955Z,48.78
2019-01-10T15:54:20.248Z,46.95
2019-01-10T15:59:27.132Z,45.76
2019-01-10T16:04:34.005Z,45.71
2019-01-10T16:09:44.526Z,44.72
2019-01-10T16:14:52.455Z,44.96
2019-01-10T16:20:00.047Z,44.87
2019-01-10T16:25:11.334Z,46.12
2019-01-10T16:30:24.338Z,46.68
2019-01-10T16:35:31.945Z,47.33
2019-01-10T16:40:39.296Z,47.81
2019-01-10T16:45:46.339Z,47.87
2019-01-10T16:50:53.995Z,47.81
2019-01-10T16:56:03.951Z,49.98
2019-01-10T17:01:11.055Z,50.54
2019-01-10T17:06:18.344Z,50.81
2019-01-10T17:11:28.570Z,50.22
2019-01-10T17:16:36.549Z,49.05
2019-01-10T17:21:44.226Z,50.02
2019-01-10T17:26:51.761Z,50.89
2019-01-10T17:31:58.865Z,50.48
2019-01-10T17:37:06.548Z,50.60
2019-01-10T17:42:15.597Z,50.47
2019-01-10T17:47:21.801Z,52.90
2019-01-10T17:52:28.796Z,53.49
2019-01-10T17:57:37.652Z,54.36
2019-01-10T18:02:45.307Z,55.36
2019-01-10T18:07:52.968Z,54.60
2019-01-10T18:13:00.375Z,54.58
2019-01-10T18:18:08.235Z,53.89
2019-01-10T18:23:17.755Z,54.42
2019-01-10T18:28:24.143Z,54.52
2019-01-10T18:33:34.153Z,52.70
2019-01-10T18:38:41.773Z,52.17
2019-01-10T18:43:48.654Z,52.20
2019-01-10T18:48:57.107Z,51.78
2019-01-10T18:54:06.129Z,52.16
2019-01-10T18:59:13.192Z,51.97
2019-01-10T19:04:23.350Z,52.33
2019-01-10T19:09:30.302Z,52.11
2019-01-10T19:14:36.607Z,51.00
2019-01-10T19:19:44.100Z,53.26
2019-01-10T19:24:51.556Z,53.47
2019-01-10T19:30:00.175Z,53.90
2019-01-10T19:35:09.562Z,53.02
2019-01-10T19:40:19.763Z,52.51
2019-01-10T19:45:27.394Z,51.79
2019-01-10T19:50:34.983Z,52.76
2019-01-10T19:55:41.946Z,51.19
2019-01-10T20:00:49.556Z,52.95
2019-01-10T20:05:56.558Z,51.56
2019-01-10T20:11:04.210Z,51.15
2019-01-10T20:16:15.312Z,53.15
2019-01-10T20:21:23.726Z,53.64
2019-01-10T20:26:30.707Z,53.19
2019-01-10T20:31:38.130Z,53.23
2019-01-10T20:36:46.700Z,52.58
2019-01-10T20:42:01.693Z,53.70
2019-01-10T20:47:04.729Z,55.47
2019-01-10T20:52:11.588Z,55.69
2019-01-10T20:57:19.873Z,55.34
2019-01-10T21:02:26.361Z,55.30
2019-01-10T21:07:33.650Z,55.33
2019-01-10T21:12:40.705Z,55.74
2019-01-10T21:17:49.341Z,54.92
2019-01-10T21:22:56.709Z,53.66
2019-01-10T21:28:02.666Z,54.15
2019-01-10T21:33:09.411Z,55.41
2019-01-10T21:38:16.500Z,54.25
2019-01-10T21:43:23.822Z,53.42
2019-01-10T21:48:35.063Z,53.28
2019-01-10T21:53:40.354Z,53.48
2019-01-10T21:58:46.131Z,54.38
2019-01-10T22:03:52.669Z,55.10
2019-01-10T22:09:03.346Z,55.23
2019-01-10T22:14:10.297Z,54.32
2019-01-10T22:19:16.897Z,54.22
2019-01-10T22:24:22.769Z,54.82
2019-01-10T22:29:29.959Z,54.41
2019-01-10T22:34:37.579Z,54.70
2019-01-10T22:39:43.382Z,55.12
2019-01-10T22:44:50.012Z,56.01
2019-01-10T22:49:56.764Z,56.40
2019-01-10T22:55:03.000Z,56.11
2019-01-10T23:00:18.762Z,55.13
2019-01-10T23:05:25.492Z,56.44
2019-01-10T23:10:33.004Z,55.56
2019-01-10T23:15:41.764Z,57.35
2019-01-10T23:20:55.655Z,56.92
2019-01-10T23:26:01.327Z,56.96
2019-01-10T23:31:09.782Z,57.54
2019-01-10T23:36:15.619Z,57.45
2019-01-10T23:41:21.456Z,55.83
2019-01-10T23:46:27.040Z,56.71
2019-01-10T23:51:32.822Z,57.88
2019-01-10T23:56:38.615Z,58.99
